Time;durP1;ratioP1;P1;durP2;ratioP2;P2;SDS_P1;SDS_P2;PMS_P1;PMS_P2;Temp;Humidity;BMP_temperature;BMP_pressure;BME280_temperature;BME280_humidity;BME280_pressure;Samples;Min_cycle;Max_cycle;Signal;HPM_P1;HPM_P2
2021/10/14 00:02:22;;;;;;;6.97;4.10;;;11.20;83.70;;;;;;5072602;28;20024;-36
2021/10/14 00:04:48;;;;;;;14.85;4.70;;;11.30;83.80;;;;;;5073011;28;20060;-37
2021/10/14 00:07:14;;;;;;;8.27;3.90;;;11.20;83.70;;;;;;5073105;28;20032;-37
2021/10/14 00:09:40;;;;;;;11.38;3.78;;;11.30;83.80;;;;;;5073702;28;20342;-36
2021/10/14 00:12:05;;;;;;;9.07;4.70;;;11.20;83.70;;;;;;5054735;28;20123;-38
2021/10/14 00:14:31;;;;;;;9.15;4.57;;;11.30;83.90;;;;;;5072672;28;20028;-37
2021/10/14 00:16:57;;;;;;;12.40;4.85;;;11.20;84.10;;;;;;5073158;28;20020;-37
2021/10/14 00:19:23;;;;;;;13.57;4.80;;;11.20;83.60;;;;;;5072689;28;20024;-37
2021/10/14 00:21:49;;;;;;;11.45;4.18;;;11.10;84.00;;;;;;5072736;28;20040;-37
2021/10/14 00:24:14;;;;;;;10.02;4.03;;;11.10;83.70;;;;;;5072644;28;20063;-37
2021/10/14 00:26:40;;;;;;;10.07;4.07;;;11.10;84.00;;;;;;5072781;28;20021;-37
2021/10/14 00:29:06;;;;;;;7.53;3.53;;;11.10;83.70;;;;;;5072563;28;20082;-37
2021/10/14 00:31:32;;;;;;;13.07;5.35;;;11.20;83.40;;;;;;5072578;28;20020;-37
2021/10/14 00:33:57;;;;;;;9.43;3.83;;;11.20;83.30;;;;;;5072460;28;20028;-37
2021/10/14 00:36:24;;;;;;;17.63;5.25;;;11.20;83.00;;;;;;5072422;28;20097;-38
2021/10/14 00:38:50;;;;;;;18.00;3.80;;;11.10;82.90;;;;;;5072519;28;20078;-37
2021/10/14 00:41:16;;;;;;;8.57;4.05;;;11.20;82.80;;;;;;5072569;28;20040;-37
2021/10/14 00:43:41;;;;;;;6.53;3.47;;;11.20;82.90;;;;;;5072588;28;20058;-37
2021/10/14 00:46:17;;;;;;;17.35;4.18;;;11.10;82.50;;;;;;5072442;28;20028;-38
2021/10/14 00:48:43;;;;;;;10.38;3.78;;;11.20;82.40;;;;;;5072761;28;20096;-37
2021/10/14 00:51:09;;;;;;;13.13;3.85;;;11.20;82.50;;;;;;5072325;28;20059;-37
2021/10/14 00:53:38;;;;;;;12.35;4.10;;;11.20;82.50;;;;;;5072383;28;20572;-38
2021/10/14 00:56:05;;;;;;;10.02;4.28;;;11.20;82.40;;;;;;5072492;28;20024;-37
2021/10/14 00:58:31;;;;;;;14.05;4.28;;;11.20;82.10;;;;;;5072565;28;20036;-37
2021/10/14 01:00:57;;;;;;;11.68;3.75;;;11.30;81.90;;;;;;5072069;28;20056;-36
2021/10/14 01:03:23;;;;;;;10.63;4.05;;;11.30;81.70;;;;;;5072032;28;20029;-38
2021/10/14 01:05:48;;;;;;;8.63;3.78;;;11.30;82.20;;;;;;5071897;28;20140;-37
2021/10/14 01:08:14;;;;;;;12.52;5.05;;;11.10;82.80;;;;;;5072178;28;20056;-37
2021/10/14 01:10:40;;;;;;;11.68;5.50;;;11.10;83.40;;;;;;5071956;28;20028;-37
2021/10/14 01:13:07;;;;;;;18.70;5.15;;;11.00;84.20;;;;;;5072009;28;20024;-38
2021/10/14 01:15:32;;;;;;;10.38;5.03;;;10.90;84.50;;;;;;5073588;28;20031;-37
2021/10/14 01:17:58;;;;;;;11.77;6.22;;;10.80;85.20;;;;;;5075479;28;20028;-37
2021/10/14 01:20:24;;;;;;;14.13;5.57;;;10.80;85.60;;;;;;5075456;28;20016;-37
2021/10/14 01:22:50;;;;;;;14.60;5.88;;;10.70;86.10;;;;;;5075892;28;20028;-37
2021/10/14 01:25:16;;;;;;;11.43;5.40;;;10.70;86.60;;;;;;5075370;28;20047;-37
2021/10/14 01:27:42;;;;;;;13.98;6.22;;;10.70;86.90;;;;;;5075479;28;20084;-37
2021/10/14 01:30:10;;;;;;;18.63;8.23;;;10.50;87.60;;;;;;5075297;28;20040;-37
2021/10/14 01:32:36;;;;;;;17.55;6.63;;;10.50;88.00;;;;;;5075150;28;20081;-38
2021/10/14 01:35:03;;;;;;;12.18;6.63;;;10.40;88.50;;;;;;5075184;28;20025;-37
2021/10/14 01:37:29;;;;;;;9.55;7.05;;;10.30;89.00;;;;;;5075249;28;20020;-38
2021/10/14 01:39:56;;;;;;;19.55;9.55;;;10.30;89.50;;;;;;5075517;28;20035;-37
2021/10/14 01:42:21;;;;;;;17.45;8.77;;;10.30;89.90;;;;;;5057230;28;20020;-38
2021/10/14 01:44:47;;;;;;;17.52;8.95;;;10.30;90.00;;;;;;5075438;28;20040;-38
2021/10/14 01:47:13;;;;;;;22.15;9.73;;;10.20;90.60;;;;;;5075600;28;20051;-37
2021/10/14 01:49:38;;;;;;;27.25;8.90;;;10.20;90.60;;;;;;5075037;28;20028;-37
2021/10/14 01:52:04;;;;;;;22.42;11.85;;;10.30;90.60;;;;;;5075012;28;20071;-37
2021/10/14 01:54:30;;;;;;;24.98;12.75;;;10.20;90.60;;;;;;5074986;28;20024;-36
2021/10/14 01:56:55;;;;;;;26.10;14.27;;;10.20;90.90;;;;;;5075012;28;20031;-37
2021/10/14 01:59:21;;;;;;;22.50;14.10;;;10.20;90.90;;;;;;5074968;28;20020;-37
2021/10/14 02:01:47;;;;;;;26.90;14.73;;;10.10;91.10;;;;;;5075193;28;20031;-37
2021/10/14 02:04:12;;;;;;;25.63;15.50;;;10.10;91.30;;;;;;5074979;28;20024;-39
2021/10/14 02:06:39;;;;;;;24.30;14.68;;;10.10;91.50;;;;;;5075041;28;20496;-37
2021/10/14 02:09:05;;;;;;;30.00;17.92;;;10.20;91.50;;;;;;5075252;28;20063;-37
2021/10/14 02:11:31;;;;;;;28.65;16.92;;;10.10;91.50;;;;;;5074728;28;20031;-38
2021/10/14 02:13:57;;;;;;;32.03;15.55;;;10.10;91.60;;;;;;5074887;28;20388;-38
2021/10/14 02:16:23;;;;;;;26.90;17.35;;;10.10;91.80;;;;;;5075053;28;20032;-38
2021/10/14 02:18:48;;;;;;;30.48;16.95;;;10.00;91.60;;;;;;5056604;28;20455;-38
2021/10/14 02:21:16;;;;;;;35.25;19.35;;;10.10;91.70;;;;;;5074521;28;20362;-38
2021/10/14 02:23:42;;;;;;;36.05;18.90;;;10.10;91.40;;;;;;5074721;28;20024;-37
2021/10/14 02:26:08;;;;;;;33.25;18.42;;;10.00;91.90;;;;;;5074293;28;20032;-36
2021/10/14 02:28:33;;;;;;;36.63;19.45;;;9.90;91.80;;;;;;5074342;28;20108;-36
2021/10/14 02:30:59;;;;;;;36.55;19.48;;;10.00;92.00;;;;;;5074286;28;20029;-37
2021/10/14 02:33:24;;;;;;;29.65;19.00;;;9.90;92.00;;;;;;5074338;28;20025;-37
2021/10/14 02:35:50;;;;;;;35.53;21.83;;;9.80;92.10;;;;;;5074480;28;20024;-37
2021/10/14 02:38:16;;;;;;;33.55;20.35;;;9.80;92.20;;;;;;5074547;28;20073;-37
2021/10/14 02:40:42;;;;;;;30.35;19.52;;;9.80;92.60;;;;;;5074342;28;20024;-37
2021/10/14 02:43:07;;;;;;;35.40;22.35;;;9.90;92.50;;;;;;5074220;28;20491;-37
2021/10/14 02:45:33;;;;;;;44.08;23.75;;;9.90;92.30;;;;;;5074762;28;20028;-39
2021/10/14 02:47:59;;;;;;;30.05;19.35;;;9.90;92.20;;;;;;5056291;28;20528;-37
2021/10/14 02:50:24;;;;;;;39.08;22.50;;;9.90;92.30;;;;;;5074185;28;20032;-37
2021/10/14 02:52:50;;;;;;;35.30;23.00;;;10.00;92.20;;;;;;5055923;28;20021;-37
2021/10/14 02:55:16;;;;;;;34.90;23.17;;;10.00;92.20;;;;;;5073724;28;20029;-37
2021/10/14 02:57:41;;;;;;;40.13;19.30;;;10.00;92.20;;;;;;5074251;28;20025;-37
2021/10/14 03:00:08;;;;;;;37.63;23.25;;;9.90;92.10;;;;;;5055949;28;20025;-37
2021/10/14 03:02:33;;;;;;;39.63;22.73;;;10.00;92.50;;;;;;5073899;28;20024;-37
2021/10/14 03:04:59;;;;;;;34.03;21.65;;;10.10;92.10;;;;;;5073443;28;20511;-37
2021/10/14 03:07:25;;;;;;;34.08;22.58;;;10.10;91.70;;;;;;5073877;28;20154;-37
2021/10/14 03:09:50;;;;;;;38.95;21.98;;;10.20;91.80;;;;;;5055623;28;20040;-37
2021/10/14 03:12:16;;;;;;;37.03;22.20;;;10.20;91.70;;;;;;5073462;28;20020;-36
2021/10/14 03:14:42;;;;;;;38.15;22.67;;;10.10;91.70;;;;;;5073814;28;20435;-36
2021/10/14 03:17:09;;;;;;;36.42;21.83;;;10.20;91.80;;;;;;5073366;28;20073;-37
2021/10/14 03:19:35;;;;;;;38.35;22.58;;;10.10;91.90;;;;;;5073412;28;20092;-37
2021/10/14 03:22:00;;;;;;;42.35;24.05;;;10.20;91.90;;;;;;5073612;28;20103;-37
2021/10/14 03:24:26;;;;;;;46.92;23.35;;;10.20;91.60;;;;;;5073309;28;20027;-36
2021/10/14 03:26:52;;;;;;;40.58;24.38;;;10.10;91.70;;;;;;5073103;28;20447;-37
2021/10/14 03:29:17;;;;;;;49.38;24.10;;;10.00;91.90;;;;;;5073546;28;20106;-37
2021/10/14 03:31:43;;;;;;;41.83;26.30;;;10.10;91.90;;;;;;5073281;28;20357;-36
2021/10/14 03:34:09;;;;;;;45.33;27.17;;;10.10;91.80;;;;;;5073107;28;20021;-37
2021/10/14 03:36:34;;;;;;;51.47;29.33;;;10.10;91.80;;;;;;5073090;28;20122;-37
2021/10/14 03:39:00;;;;;;;48.40;25.98;;;10.10;91.70;;;;;;5072663;28;20380;-37
2021/10/14 03:41:26;;;;;;;52.47;28.00;;;10.10;91.80;;;;;;5073312;28;20457;-37
2021/10/14 03:43:52;;;;;;;47.45;26.13;;;10.10;92.00;;;;;;5073551;28;20020;-37
2021/10/14 03:46:17;;;;;;;47.30;27.35;;;10.10;92.00;;;;;;5073323;28;20103;-37
2021/10/14 03:48:43;;;;;;;50.42;27.25;;;10.10;92.00;;;;;;5073320;28;20107;-37
2021/10/14 03:51:09;;;;;;;56.10;29.05;;;10.20;92.00;;;;;;5073178;28;20035;-37
2021/10/14 03:53:34;;;;;;;51.33;27.65;;;10.20;92.00;;;;;;5054795;28;20028;-37
2021/10/14 03:56:00;;;;;;;49.20;26.55;;;10.20;92.00;;;;;;5072730;28;20032;-37
2021/10/14 03:58:26;;;;;;;59.30;31.48;;;10.20;91.90;;;;;;5072945;28;20027;-37
2021/10/14 04:00:54;;;;;;;58.53;30.63;;;10.20;92.00;;;;;;5072996;28;20033;-38
2021/10/14 04:03:19;;;;;;;63.35;29.98;;;10.30;92.00;;;;;;5072758;28;20048;-37
2021/10/14 04:05:45;;;;;;;68.65;31.10;;;10.20;92.10;;;;;;5072658;28;20149;-36
2021/10/14 04:08:11;;;;;;;59.95;30.88;;;10.20;92.10;;;;;;5072599;28;20029;-37
2021/10/14 04:10:37;;;;;;;55.35;31.08;;;10.30;92.10;;;;;;5073560;28;20314;-37
2021/10/14 04:13:04;;;;;;;52.15;29.48;;;10.30;92.00;;;;;;5073137;28;20334;-37
2021/10/14 04:15:30;;;;;;;70.25;32.65;;;10.30;92.00;;;;;;5072768;28;20020;-37
2021/10/14 04:17:55;;;;;;;73.93;31.90;;;10.30;92.00;;;;;;5072525;28;20476;-37
2021/10/14 04:20:21;;;;;;;66.70;33.08;;;10.30;92.10;;;;;;5072392;28;20094;-37
2021/10/14 04:22:47;;;;;;;61.08;31.60;;;10.30;92.10;;;;;;5072283;28;20524;-37
2021/10/14 04:25:13;;;;;;;60.95;25.70;;;10.30;92.10;;;;;;5072515;28;20048;-38
2021/10/14 04:27:38;;;;;;;59.25;32.15;;;10.30;92.30;;;;;;5054925;28;20036;-37
2021/10/14 04:30:05;;;;;;;73.28;31.63;;;10.30;92.30;;;;;;5072488;28;20017;-37
2021/10/14 04:32:31;;;;;;;67.57;34.58;;;10.30;92.00;;;;;;5072547;28;20028;-36
2021/10/14 04:34:57;;;;;;;75.43;34.17;;;10.30;92.30;;;;;;5072446;28;20029;-37
2021/10/14 04:37:23;;;;;;;77.50;33.05;;;10.30;92.50;;;;;;5072717;28;20074;-37
2021/10/14 04:39:50;;;;;;;70.95;34.42;;;10.30;92.50;;;;;;5072528;28;20024;-36
2021/10/14 04:42:16;;;;;;;78.10;35.88;;;10.20;92.60;;;;;;5073336;28;20028;-37
2021/10/14 04:44:41;;;;;;;77.55;33.78;;;10.20;92.90;;;;;;5054223;28;20078;-37
2021/10/14 04:47:07;;;;;;;88.82;37.05;;;10.20;93.10;;;;;;5072407;28;20409;-37
2021/10/14 04:49:33;;;;;;;86.10;37.08;;;10.30;92.90;;;;;;5072557;28;20020;-37
2021/10/14 04:52:00;;;;;;;85.32;36.63;;;10.20;92.90;;;;;;5076068;28;20070;-39
2021/10/14 04:54:26;;;;;;;89.80;40.17;;;10.30;92.90;;;;;;5077566;28;20031;-47
2021/10/14 04:56:51;;;;;;;81.63;36.83;;;10.30;92.90;;;;;;5058158;28;20116;-46
2021/10/14 04:59:17;;;;;;;87.75;39.35;;;10.30;92.80;;;;;;5076322;28;20111;-46
2021/10/14 05:01:43;;;;;;;90.35;40.70;;;10.20;93.00;;;;;;5076244;28;20484;-48
2021/10/14 05:04:09;;;;;;;78.90;34.95;;;10.20;93.10;;;;;;5075945;28;20048;-47
2021/10/14 05:06:34;;;;;;;101.68;38.85;;;10.20;93.10;;;;;;5038014;28;20080;-47
2021/10/14 05:09:00;;;;;;;85.70;35.88;;;10.30;92.90;;;;;;5055944;28;20021;-47
2021/10/14 05:11:26;;;;;;;77.88;34.13;;;10.30;92.80;;;;;;5056130;28;20064;-47
2021/10/14 05:13:52;;;;;;;92.90;35.92;;;10.30;92.80;;;;;;5055764;28;20067;-46
2021/10/14 05:16:18;;;;;;;89.00;37.30;;;10.30;92.70;;;;;;5037705;28;20029;-48
2021/10/14 05:18:43;;;;;;;97.90;38.53;;;10.30;93.00;;;;;;5037785;28;20071;-46
2021/10/14 05:21:09;;;;;;;91.82;39.40;;;10.30;93.10;;;;;;5055650;28;20040;-46
2021/10/14 05:23:35;;;;;;;76.22;35.50;;;10.30;93.00;;;;;;5055573;28;20465;-46
2021/10/14 05:26:00;;;;;;;85.13;37.80;;;10.30;93.00;;;;;;5055760;28;20033;-50
2021/10/14 05:28:26;;;;;;;86.25;38.13;;;10.30;93.00;;;;;;5055874;28;20451;-60
2021/10/14 05:30:52;;;;;;;98.13;43.28;;;10.30;93.50;;;;;;5055337;28;20021;-46
2021/10/14 05:33:17;;;;;;;106.28;45.63;;;10.30;93.60;;;;;;5055715;28;20029;-46
2021/10/14 05:35:43;;;;;;;114.70;49.33;;;10.30;93.50;;;;;;5055649;28;20416;-48
2021/10/14 05:38:09;;;;;;;107.80;43.30;;;10.30;93.50;;;;;;5055336;28;20025;-48
2021/10/14 05:40:35;;;;;;;113.30;45.75;;;10.30;93.50;;;;;;5055176;28;20029;-50
2021/10/14 05:43:02;;;;;;;108.93;44.05;;;10.40;93.50;;;;;;5055247;28;20021;-46
2021/10/14 05:45:27;;;;;;;112.88;40.47;;;10.30;93.50;;;;;;5055526;28;20538;-46
2021/10/14 05:47:53;;;;;;;104.00;45.50;;;10.30;93.50;;;;;;5055007;28;20029;-46
2021/10/14 05:50:19;;;;;;;109.53;43.95;;;10.30;93.30;;;;;;5036917;28;20071;-47
2021/10/14 05:52:44;;;;;;;104.13;43.38;;;10.40;93.40;;;;;;5037066;28;20074;-48
2021/10/14 05:55:10;;;;;;;116.80;46.10;;;10.40;93.50;;;;;;5055079;28;20025;-47
2021/10/14 05:57:36;;;;;;;98.18;42.53;;;10.50;93.50;;;;;;5054731;28;20024;-46
2021/10/14 06:00:02;;;;;;;102.53;43.45;;;10.50;93.00;;;;;;5054844;28;20021;-46
2021/10/14 06:02:28;;;;;;;98.57;41.50;;;10.40;93.10;;;;;;5019818;28;20052;-47
2021/10/14 06:04:54;;;;;;;90.07;39.60;;;10.40;93.10;;;;;;5060456;28;20044;-46
2021/10/14 06:07:20;;;;;;;80.57;40.75;;;10.40;93.10;;;;;;5074391;28;20492;-47
2021/10/14 06:09:45;;;;;;;97.90;41.03;;;10.30;93.20;;;;;;5074787;28;20039;-46
2021/10/14 06:12:13;;;;;;;85.13;37.95;;;10.40;93.40;;;;;;5074323;28;20024;-47
2021/10/14 06:14:39;;;;;;;88.93;37.10;;;10.50;93.40;;;;;;5073842;28;20090;-47
2021/10/14 06:17:05;;;;;;;79.90;35.95;;;10.50;93.10;;;;;;5074198;28;20070;-46
2021/10/14 06:19:30;;;;;;;70.80;35.70;;;10.60;92.80;;;;;;5074328;28;20475;-46
2021/10/14 06:21:56;;;;;;;74.93;33.65;;;10.50;92.60;;;;;;5074643;28;20070;-46
2021/10/14 06:24:22;;;;;;;93.63;40.60;;;10.60;92.50;;;;;;5074329;28;20066;-47
2021/10/14 06:26:47;;;;;;;66.47;33.20;;;10.50;92.60;;;;;;5074625;28;20024;-47
2021/10/14 06:29:13;;;;;;;68.95;32.75;;;10.40;92.50;;;;;;5074403;28;20028;-46
2021/10/14 06:31:38;;;;;;;62.90;32.58;;;10.50;92.60;;;;;;5073590;28;20024;-46
2021/10/14 06:34:04;;;;;;;66.18;33.58;;;10.50;92.50;;;;;;5074169;28;20027;-46
2021/10/14 06:36:30;;;;;;;69.28;30.85;;;10.50;92.50;;;;;;5074008;28;20028;-48
2021/10/14 06:38:55;;;;;;;61.88;33.33;;;10.50;92.60;;;;;;5073836;28;20028;-46
2021/10/14 06:41:21;;;;;;;68.40;32.40;;;10.50;92.40;;;;;;5074197;28;20030;-49
2021/10/14 06:43:47;;;;;;;71.03;34.30;;;10.50;92.10;;;;;;5074115;28;20044;-46
2021/10/14 06:46:13;;;;;;;69.75;33.75;;;10.50;92.10;;;;;;5056337;28;20033;-46
2021/10/14 06:48:38;;;;;;;68.35;31.08;;;10.50;92.00;;;;;;5055672;28;20111;-47
2021/10/14 06:51:04;;;;;;;59.97;31.95;;;10.50;92.30;;;;;;5073807;28;20024;-47
2021/10/14 06:53:31;;;;;;;66.07;35.17;;;10.50;92.10;;;;;;5074147;28;20067;-48
2021/10/14 06:55:57;;;;;;;69.10;33.95;;;10.60;92.00;;;;;;5073531;28;20032;-48
2021/10/14 06:58:23;;;;;;;54.42;30.73;;;10.50;91.90;;;;;;5073583;28;20531;-47
2021/10/14 07:00:48;;;;;;;74.25;32.70;;;10.60;91.90;;;;;;5073511;28;20020;-47
2021/10/14 07:03:14;;;;;;;58.58;33.40;;;10.50;92.00;;;;;;5054885;28;20020;-48
2021/10/14 07:05:40;;;;;;;57.72;32.42;;;10.60;91.80;;;;;;5073056;28;20048;-46
2021/10/14 07:08:05;;;;;;;64.85;33.03;;;10.60;91.70;;;;;;5073767;28;20104;-47
2021/10/14 07:10:31;;;;;;;66.85;34.58;;;10.50;91.70;;;;;;5073430;28;20024;-49
2021/10/14 07:13:04;;;;;;;58.55;33.13;;;10.60;91.80;;;;;;5072392;28;20029;-47
2021/10/14 07:15:29;;;;;;;55.28;31.98;;;10.50;91.90;;;;;;5073320;28;20029;-46
2021/10/14 07:17:55;;;;;;;57.92;30.60;;;10.50;91.90;;;;;;5054846;28;20392;-46
2021/10/14 07:20:21;;;;;;;53.72;30.00;;;10.50;92.20;;;;;;5072658;28;20020;-47
2021/10/14 07:22:46;;;;;;;47.67;29.42;;;10.60;92.10;;;;;;5073080;28;20024;-47
2021/10/14 07:25:12;;;;;;;59.88;34.08;;;10.60;91.70;;;;;;5055211;28;20468;-50
2021/10/14 07:27:38;;;;;;;57.97;33.30;;;10.60;91.80;;;;;;5073002;28;20468;-49
2021/10/14 07:30:06;;;;;;;53.28;29.60;;;10.60;91.80;;;;;;5055052;28;20032;-50
2021/10/14 07:32:32;;;;;;;64.30;32.88;;;10.50;92.10;;;;;;5073013;28;20052;-47
2021/10/14 07:34:57;;;;;;;63.83;34.15;;;10.50;92.30;;;;;;5073086;28;20052;-47
2021/10/14 07:37:23;;;;;;;59.55;34.70;;;10.50;92.50;;;;;;5072876;28;20028;-48
2021/10/14 07:39:48;;;;;;;64.15;34.05;;;10.50;92.60;;;;;;5072726;28;20546;-47
2021/10/14 07:42:14;;;;;;;66.60;35.95;;;10.50;92.80;;;;;;5072884;28;20461;-48
2021/10/14 07:44:40;;;;;;;79.05;36.92;;;10.50;92.90;;;;;;5072498;28;20078;-49
2021/10/14 07:47:06;;;;;;;69.25;35.58;;;10.60;92.80;;;;;;5072585;28;20091;-46
2021/10/14 07:49:32;;;;;;;67.10;35.42;;;10.60;92.80;;;;;;5072700;28;20460;-49
2021/10/14 07:51:58;;;;;;;73.90;35.75;;;10.50;92.80;;;;;;5072501;28;20126;-46
2021/10/14 07:54:24;;;;;;;80.28;39.00;;;10.60;92.90;;;;;;5072182;28;20021;-52
2021/10/14 07:56:50;;;;;;;91.65;41.80;;;10.60;92.90;;;;;;5072519;28;20388;-46
2021/10/14 07:59:16;;;;;;;75.70;36.80;;;10.60;93.00;;;;;;5072787;28;20028;-47
2021/10/14 08:01:42;;;;;;;83.60;42.45;;;10.70;92.90;;;;;;5072460;28;20063;-51
2021/10/14 08:04:09;;;;;;;90.72;42.28;;;10.60;92.70;;;;;;5073134;28;20056;-50
2021/10/14 08:06:35;;;;;;;92.13;43.35;;;10.80;92.70;;;;;;5072797;28;20044;-47
2021/10/14 08:09:02;;;;;;;97.03;43.65;;;10.70;92.90;;;;;;5072934;28;20487;-48
2021/10/14 08:11:28;;;;;;;100.50;47.17;;;10.80;92.90;;;;;;5073099;28;20040;-49
2021/10/14 08:13:53;;;;;;;93.22;44.88;;;10.70;93.00;;;;;;5072939;28;20391;-52
2021/10/14 08:16:20;;;;;;;89.15;42.67;;;10.80;93.20;;;;;;5072344;28;20108;-49
2021/10/14 08:18:45;;;;;;;90.47;46.67;;;10.80;93.30;;;;;;5072732;28;20478;-52
2021/10/14 08:21:11;;;;;;;98.22;47.25;;;10.80;93.40;;;;;;5072712;28;20048;-49
2021/10/14 08:23:37;;;;;;;97.35;46.40;;;10.80;93.70;;;;;;5073050;28;20021;-49
2021/10/14 08:26:03;;;;;;;97.75;45.63;;;10.80;93.70;;;;;;5076503;28;20036;-48
2021/10/14 08:28:28;;;;;;;99.75;49.75;;;10.80;93.80;;;;;;5076300;28;20032;-49
2021/10/14 08:30:55;;;;;;;103.35;48.22;;;10.80;93.80;;;;;;5076075;28;20028;-50
2021/10/14 08:33:20;;;;;;;98.30;48.63;;;10.80;93.80;;;;;;5076365;28;20025;-48
2021/10/14 08:35:46;;;;;;;98.13;47.33;;;10.80;93.60;;;;;;5075995;28;20033;-48
2021/10/14 08:38:12;;;;;;;103.47;47.95;;;10.90;93.70;;;;;;5075687;28;20017;-49
2021/10/14 08:40:39;;;;;;;103.63;48.72;;;10.90;93.60;;;;;;5057988;28;20020;-49
2021/10/14 08:43:10;;;;;;;107.88;50.97;;;11.00;93.50;;;;;;5076500;28;20028;-49
2021/10/14 08:45:39;;;;;;;106.82;49.95;;;11.00;93.30;;;;;;5076110;28;20031;-49
2021/10/14 08:48:05;;;;;;;99.38;46.58;;;11.00;93.40;;;;;;5075649;28;20116;-48
2021/10/14 08:50:33;;;;;;;105.60;52.35;;;11.00;93.20;;;;;;5075738;28;20024;-48
2021/10/14 08:52:58;;;;;;;100.93;47.60;;;11.00;93.50;;;;;;5075981;28;20033;-49
2021/10/14 08:55:24;;;;;;;110.00;49.63;;;11.00;93.40;;;;;;5076102;28;20476;-38
2021/10/14 08:57:50;;;;;;;108.32;50.85;;;11.10;93.40;;;;;;5076667;28;20309;-37
2021/10/14 09:00:15;;;;;;;114.25;51.67;;;11.20;93.10;;;;;;5076027;28;20024;-36
2021/10/14 09:02:41;;;;;;;99.78;49.70;;;11.20;93.00;;;;;;5076219;28;20040;-36
2021/10/14 09:05:10;;;;;;;89.20;47.67;;;11.20;93.10;;;;;;5075849;28;20400;-37
2021/10/14 09:07:36;;;;;;;93.45;49.13;;;11.30;93.10;;;;;;5075328;28;20060;-38
2021/10/14 09:10:11;;;;;;;90.53;45.83;;;11.30;92.90;;;;;;5075262;28;20086;-37
2021/10/14 09:12:39;;;;;;;85.88;45.15;;;11.30;93.10;;;;;;5075491;28;20024;-37
2021/10/14 09:15:09;;;;;;;90.43;45.42;;;11.30;93.10;;;;;;5075220;28;20044;-36
2021/10/14 09:17:38;;;;;;;94.30;47.60;;;11.30;93.10;;;;;;5075677;28;20104;-37
2021/10/14 09:20:27;;;;;;;88.97;42.67;;;11.30;93.20;;;;;;5075890;28;20116;-37
2021/10/14 09:23:21;;;;;;;94.55;45.83;;;11.30;93.20;;;;;;5047744;28;20067;-37
2021/10/14 09:25:52;;;;;;;94.53;49.40;;;11.30;93.00;;;;;;5058419;28;20063;-37
2021/10/14 09:28:21;;;;;;;96.65;45.28;;;11.30;93.20;;;;;;5074922;28;20029;-38
2021/10/14 09:30:52;;;;;;;81.15;42.60;;;11.40;93.10;;;;;;5075231;28;20487;-37
2021/10/14 09:33:37;;;;;;;74.25;39.13;;;11.40;93.00;;;;;;5075582;28;20100;-37
2021/10/14 09:36:19;;;;;;;70.47;39.95;;;11.50;92.90;;;;;;5074470;28;20384;-37
2021/10/14 09:38:51;;;;;;;76.18;37.83;;;11.50;92.50;;;;;;5075616;28;20396;-37
2021/10/14 09:41:20;;;;;;;83.80;42.85;;;11.50;92.60;;;;;;5057347;28;20025;-37
2021/10/14 09:43:51;;;;;;;87.28;43.92;;;11.50;92.60;;;;;;5057073;28;20096;-36
2021/10/14 09:46:39;;;;;;;87.97;45.72;;;11.60;92.60;;;;;;5075467;28;20024;-37
2021/10/14 09:49:07;;;;;;;92.40;44.78;;;11.70;92.10;;;;;;5074944;28;20535;-38
2021/10/14 09:51:36;;;;;;;92.25;47.90;;;11.70;92.10;;;;;;5074219;28;20166;-39
2021/10/14 09:54:02;;;;;;;109.05;50.55;;;11.60;92.50;;;;;;5074923;28;20025;-38
2021/10/14 09:56:29;;;;;;;106.30;51.45;;;11.60;92.40;;;;;;5075401;28;20492;-38
2021/10/14 09:58:57;;;;;;;106.40;49.35;;;11.50;92.90;;;;;;5040605;28;20357;-37
2021/10/14 10:01:24;;;;;;;113.05;49.97;;;11.50;93.00;;;;;;5074223;28;20012;-38
2021/10/14 10:03:51;;;;;;;114.65;55.08;;;11.50;93.20;;;;;;5056410;28;20134;-38
2021/10/14 10:06:17;;;;;;;113.32;56.92;;;11.60;93.20;;;;;;5056309;28;20408;-38
2021/10/14 10:08:43;;;;;;;97.03;48.80;;;11.50;93.10;;;;;;5056109;28;20047;-38
2021/10/14 10:11:16;;;;;;;105.15;52.97;;;11.70;93.00;;;;;;5074177;28;20097;-38
2021/10/14 10:13:52;;;;;;;96.32;49.38;;;11.80;92.60;;;;;;5056639;28;20025;-37
2021/10/14 10:16:20;;;;;;;99.47;48.10;;;11.90;92.20;;;;;;5056738;28;20651;-37
2021/10/14 10:18:48;;;;;;;86.68;45.30;;;12.10;91.80;;;;;;5056064;28;20426;-37
2021/10/14 10:21:31;;;;;;;88.28;47.30;;;12.00;92.00;;;;;;5055996;28;20107;-37
2021/10/14 10:23:59;;;;;;;103.57;48.40;;;12.20;91.80;;;;;;5056085;28;20020;-36
2021/10/14 10:26:36;;;;;;;89.30;43.42;;;12.20;91.50;;;;;;5056017;28;20052;-36
2021/10/14 10:29:14;;;;;;;80.88;43.70;;;12.30;91.40;;;;;;5074198;28;20440;-37
2021/10/14 10:31:51;;;;;;;78.78;44.17;;;12.20;91.20;;;;;;5074192;28;20078;-37
2021/10/14 10:34:50;;;;;;;80.47;41.95;;;12.30;91.30;;;;;;5074033;28;20052;-38
2021/10/14 10:39:57;;;;;;;;;;;12.30;91.30;;;;;;5074263;28;20573;-37
2021/10/14 10:42:42;;;;;;;75.25;40.00;;;12.30;91.10;;;;;;5073660;28;19904;-38
2021/10/14 10:45:14;;;;;;;75.85;41.95;;;12.30;91.10;;;;;;5055690;28;20111;-37
2021/10/14 10:47:54;;;;;;;77.45;41.28;;;12.50;90.80;;;;;;5072728;28;20071;-37
2021/10/14 10:50:29;;;;;;;70.32;40.08;;;12.50;90.30;;;;;;5073493;28;20391;-38
2021/10/14 10:53:09;;;;;;;80.43;43.38;;;12.40;90.50;;;;;;5074150;28;20025;-38
2021/10/14 10:55:38;;;;;;;72.40;40.95;;;12.50;90.60;;;;;;5055571;28;20551;-38
2021/10/14 10:58:07;;;;;;;61.45;36.95;;;12.30;90.90;;;;;;5073581;28;20020;-37
2021/10/14 11:00:36;;;;;;;68.15;37.22;;;12.50;90.50;;;;;;5073559;28;20418;-37
2021/10/14 11:03:13;;;;;;;65.20;36.50;;;12.60;90.20;;;;;;5055411;28;20017;-37
2021/10/14 11:05:45;;;;;;;66.60;36.03;;;12.60;90.30;;;;;;5042960;28;20055;-38
2021/10/14 11:08:13;;;;;;;60.90;33.45;;;12.60;90.30;;;;;;5035320;28;20082;-37
2021/10/14 11:10:39;;;;;;;60.47;31.45;;;12.60;90.10;;;;;;5053083;28;20024;-37
2021/10/14 11:13:05;;;;;;;56.80;32.75;;;12.60;90.40;;;;;;5053097;28;20025;-36
2021/10/14 11:15:31;;;;;;;55.03;30.42;;;12.80;89.80;;;;;;5035531;28;20172;-37
2021/10/14 11:18:04;;;;;;;63.33;32.97;;;12.60;89.70;;;;;;5035143;28;20025;-37
2021/10/14 11:20:31;;;;;;;57.55;29.80;;;12.80;89.80;;;;;;5035066;28;20029;-38
2021/10/14 11:23:03;;;;;;;60.97;28.00;;;12.90;88.90;;;;;;5053540;28;20059;-38
2021/10/14 11:25:29;;;;;;;56.50;31.48;;;12.80;89.00;;;;;;5034824;28;20040;-38
2021/10/14 11:28:06;;;;;;;48.35;28.83;;;12.90;88.70;;;;;;5053318;28;20493;-38
2021/10/14 11:30:45;;;;;;;54.30;29.88;;;13.00;88.40;;;;;;5053198;28;20025;-36
2021/10/14 11:33:33;;;;;;;47.78;27.45;;;13.00;88.50;;;;;;5034183;28;20021;-37
2021/10/14 11:36:02;;;;;;;39.60;25.55;;;13.10;87.50;;;;;;5035618;28;20037;-37
2021/10/14 11:38:29;;;;;;;41.28;24.33;;;13.10;87.60;;;;;;5035004;28;20017;-37
2021/10/14 11:40:56;;;;;;;39.55;23.77;;;13.00;87.70;;;;;;5034733;28;20036;-37
2021/10/14 11:43:30;;;;;;;37.88;22.17;;;13.10;87.50;;;;;;5034962;28;20021;-38
2021/10/14 11:45:59;;;;;;;42.72;22.30;;;13.10;87.20;;;;;;5035223;28;20029;-38
2021/10/14 11:48:32;;;;;;;43.47;23.00;;;13.10;87.20;;;;;;5052849;28;20032;-37
2021/10/14 11:51:07;;;;;;;37.78;21.27;;;13.00;87.20;;;;;;5052690;28;20029;-38
2021/10/14 11:53:34;;;;;;;43.08;21.50;;;13.20;87.20;;;;;;5053117;28;20035;-38
2021/10/14 11:56:06;;;;;;;40.40;19.23;;;13.20;86.60;;;;;;5052541;28;20500;-37
2021/10/14 11:58:36;;;;;;;37.85;20.80;;;13.30;87.00;;;;;;5052383;28;20025;-37
2021/10/14 12:01:12;;;;;;;33.90;19.17;;;13.30;86.90;;;;;;5052588;28;20099;-36
2021/10/14 12:03:39;;;;;;;39.05;19.63;;;13.50;86.40;;;;;;5052611;28;20025;-37
2021/10/14 12:06:07;;;;;;;33.78;19.27;;;13.30;86.10;;;;;;5033870;28;20103;-36
2021/10/14 12:08:33;;;;;;;35.53;18.95;;;13.50;85.50;;;;;;5034424;28;20021;-37
2021/10/14 12:10:59;;;;;;;38.05;20.98;;;13.60;84.90;;;;;;5052199;28;20453;-36
2021/10/14 12:13:27;;;;;;;34.10;19.50;;;13.50;85.10;;;;;;5051717;28;20024;-37
2021/10/14 12:16:14;;;;;;;35.45;19.42;;;13.50;85.30;;;;;;5051901;28;20048;-37
2021/10/14 12:18:40;;;;;;;33.25;17.92;;;13.60;84.80;;;;;;5033944;28;20056;-37
2021/10/14 12:21:29;;;;;;;32.83;18.13;;;13.60;85.10;;;;;;5052200;28;20426;-38
2021/10/14 12:24:25;;;;;;;35.75;18.08;;;13.80;84.50;;;;;;5052688;28;20040;-38
2021/10/14 12:26:54;;;;;;;31.33;16.25;;;13.80;84.20;;;;;;5050653;28;20111;-37
2021/10/14 12:29:26;;;;;;;26.85;16.42;;;14.00;84.20;;;;;;5034172;28;20488;-38
2021/10/14 12:32:05;;;;;;;47.55;16.48;;;14.10;83.20;;;;;;5052142;28;20036;-38
2021/10/14 12:34:52;;;;;;;31.98;16.70;;;14.10;83.50;;;;;;5052423;28;20083;-37